sensor_id;sensor_type;location;lat;lon;timestamp;P1;durP1;ratioP1;P2;durP2;ratioP2
21352;SDS011;10834;52.268;6.770;2022-10-31T00:02:44;35.03;;;18.40;;
21352;SDS011;10834;52.268;6.770;2022-10-31T00:05:30;28.10;;;18.33;;
21352;SDS011;10834;52.268;6.770;2022-10-31T00:08:16;26.20;;;17.33;;
21352;SDS011;10834;52.268;6.770;2022-10-31T00:11:03;24.93;;;16.90;;
21352;SDS011;10834;52.268;6.770;2022-10-31T00:13:49;25.50;;;15.83;;
21352;SDS011;10834;52.268;6.770;2022-10-31T00:16:35;26.77;;;16.27;;
21352;SDS011;10834;52.268;6.770;2022-10-31T00:19:21;29.07;;;16.20;;
21352;SDS011;10834;52.268;6.770;2022-10-31T00:22:07;28.87;;;15.77;;
21352;SDS011;10834;52.268;6.770;2022-10-31T00:24:53;26.77;;;15.77;;
21352;SDS011;10834;52.268;6.770;2022-10-31T00:27:38;25.27;;;16.37;;
21352;SDS011;10834;52.268;6.770;2022-10-31T00:30:24;26.20;;;17.63;;
21352;SDS011;10834;52.268;6.770;2022-10-31T00:33:10;27.23;;;17.27;;
21352;SDS011;10834;52.268;6.770;2022-10-31T00:35:56;20.87;;;15.27;;
21352;SDS011;10834;52.268;6.770;2022-10-31T00:38:42;25.13;;;15.83;;
21352;SDS011;10834;52.268;6.770;2022-10-31T00:41:29;25.97;;;16.97;;
21352;SDS011;10834;52.268;6.770;2022-10-31T00:44:15;28.13;;;16.43;;
21352;SDS011;10834;52.268;6.770;2022-10-31T00:47:01;25.77;;;16.67;;
21352;SDS011;10834;52.268;6.770;2022-10-31T00:49:47;24.80;;;16.37;;
21352;SDS011;10834;52.268;6.770;2022-10-31T00:52:33;22.97;;;15.93;;
21352;SDS011;10834;52.268;6.770;2022-10-31T00:55:19;26.17;;;16.70;;
21352;SDS011;10834;52.268;6.770;2022-10-31T00:58:05;23.47;;;15.90;;
21352;SDS011;10834;52.268;6.770;2022-10-31T01:00:51;23.30;;;15.37;;
21352;SDS011;10834;52.268;6.770;2022-10-31T01:03:40;27.60;;;15.40;;
21352;SDS011;10834;52.268;6.770;2022-10-31T01:06:26;23.47;;;15.67;;
21352;SDS011;10834;52.268;6.770;2022-10-31T01:09:12;30.97;;;16.63;;
21352;SDS011;10834;52.268;6.770;2022-10-31T01:11:58;22.80;;;15.23;;
21352;SDS011;10834;52.268;6.770;2022-10-31T01:14:44;25.17;;;14.67;;
21352;SDS011;10834;52.268;6.770;2022-10-31T01:17:30;22.87;;;15.30;;
21352;SDS011;10834;52.268;6.770;2022-10-31T01:20:16;20.57;;;14.10;;
21352;SDS011;10834;52.268;6.770;2022-10-31T01:23:03;27.67;;;13.80;;
21352;SDS011;10834;52.268;6.770;2022-10-31T01:25:49;23.03;;;13.80;;
21352;SDS011;10834;52.268;6.770;2022-10-31T01:28:36;21.67;;;13.00;;
21352;SDS011;10834;52.268;6.770;2022-10-31T01:31:25;17.30;;;13.37;;
21352;SDS011;10834;52.268;6.770;2022-10-31T01:34:18;21.93;;;12.93;;
21352;SDS011;10834;52.268;6.770;2022-10-31T01:37:04;19.30;;;13.33;;
21352;SDS011;10834;52.268;6.770;2022-10-31T01:39:50;19.97;;;12.47;;
21352;SDS011;10834;52.268;6.770;2022-10-31T01:42:36;20.83;;;12.97;;
21352;SDS011;10834;52.268;6.770;2022-10-31T01:45:22;21.63;;;13.17;;
21352;SDS011;10834;52.268;6.770;2022-10-31T01:48:15;18.53;;;13.00;;
21352;SDS011;10834;52.268;6.770;2022-10-31T01:51:05;23.83;;;13.80;;
21352;SDS011;10834;52.268;6.770;2022-10-31T01:53:51;18.60;;;12.70;;
21352;SDS011;10834;52.268;6.770;2022-10-31T01:56:41;25.83;;;13.77;;
21352;SDS011;10834;52.268;6.770;2022-10-31T01:59:29;20.13;;;13.90;;
21352;SDS011;10834;52.268;6.770;2022-10-31T02:02:19;24.27;;;14.40;;
21352;SDS011;10834;52.268;6.770;2022-10-31T02:05:06;20.63;;;13.17;;
21352;SDS011;10834;52.268;6.770;2022-10-31T02:11:02;21.27;;;13.63;;
21352;SDS011;10834;52.268;6.770;2022-10-31T02:13:47;20.73;;;13.90;;
21352;SDS011;10834;52.268;6.770;2022-10-31T02:16:33;19.23;;;13.73;;
21352;SDS011;10834;52.268;6.770;2022-10-31T02:29:28;17.30;;;12.27;;
21352;SDS011;10834;52.268;6.770;2022-10-31T02:32:26;21.30;;;14.03;;
21352;SDS011;10834;52.268;6.770;2022-10-31T02:44:39;17.40;;;13.53;;
21352;SDS011;10834;52.268;6.770;2022-10-31T02:47:36;23.13;;;14.70;;
21352;SDS011;10834;52.268;6.770;2022-10-31T02:50:28;28.17;;;14.60;;
21352;SDS011;10834;52.268;6.770;2022-10-31T02:53:19;19.20;;;14.20;;
21352;SDS011;10834;52.268;6.770;2022-10-31T02:56:15;25.57;;;15.47;;
21352;SDS011;10834;52.268;6.770;2022-10-31T02:59:03;20.57;;;13.23;;
21352;SDS011;10834;52.268;6.770;2022-10-31T03:05:11;20.67;;;14.13;;
21352;SDS011;10834;52.268;6.770;2022-10-31T03:11:00;21.17;;;13.50;;
21352;SDS011;10834;52.268;6.770;2022-10-31T03:13:50;23.70;;;14.60;;
21352;SDS011;10834;52.268;6.770;2022-10-31T03:16:45;25.00;;;14.50;;
21352;SDS011;10834;52.268;6.770;2022-10-31T03:19:42;20.90;;;13.73;;
21352;SDS011;10834;52.268;6.770;2022-10-31T03:22:31;23.80;;;15.77;;
21352;SDS011;10834;52.268;6.770;2022-10-31T03:25:18;22.07;;;14.97;;
21352;SDS011;10834;52.268;6.770;2022-10-31T03:28:04;25.40;;;15.03;;
21352;SDS011;10834;52.268;6.770;2022-10-31T03:30:52;25.03;;;15.53;;
21352;SDS011;10834;52.268;6.770;2022-10-31T03:33:40;23.60;;;15.13;;
21352;SDS011;10834;52.268;6.770;2022-10-31T03:36:28;26.50;;;15.77;;
21352;SDS011;10834;52.268;6.770;2022-10-31T03:39:18;25.67;;;16.53;;
21352;SDS011;10834;52.268;6.770;2022-10-31T03:42:07;24.60;;;15.50;;
21352;SDS011;10834;52.268;6.770;2022-10-31T03:44:58;23.67;;;16.00;;
21352;SDS011;10834;52.268;6.770;2022-10-31T03:47:44;21.87;;;15.03;;
21352;SDS011;10834;52.268;6.770;2022-10-31T03:50:33;23.70;;;15.27;;
21352;SDS011;10834;52.268;6.770;2022-10-31T03:53:27;22.10;;;14.03;;
21352;SDS011;10834;52.268;6.770;2022-10-31T03:56:21;22.50;;;15.30;;
21352;SDS011;10834;52.268;6.770;2022-10-31T03:59:19;21.60;;;15.30;;
21352;SDS011;10834;52.268;6.770;2022-10-31T04:02:15;25.70;;;16.27;;
21352;SDS011;10834;52.268;6.770;2022-10-31T04:05:04;20.10;;;14.63;;
21352;SDS011;10834;52.268;6.770;2022-10-31T04:07:51;24.23;;;15.30;;
21352;SDS011;10834;52.268;6.770;2022-10-31T04:10:40;22.00;;;14.87;;
21352;SDS011;10834;52.268;6.770;2022-10-31T04:13:29;25.23;;;15.47;;
21352;SDS011;10834;52.268;6.770;2022-10-31T04:16:18;24.50;;;15.80;;
21352;SDS011;10834;52.268;6.770;2022-10-31T04:19:07;21.77;;;15.33;;
21352;SDS011;10834;52.268;6.770;2022-10-31T04:21:52;27.73;;;16.07;;
21352;SDS011;10834;52.268;6.770;2022-10-31T04:24:39;23.13;;;15.93;;
21352;SDS011;10834;52.268;6.770;2022-10-31T04:27:25;21.70;;;15.13;;
21352;SDS011;10834;52.268;6.770;2022-10-31T04:30:11;22.10;;;15.33;;
21352;SDS011;10834;52.268;6.770;2022-10-31T04:32:57;26.03;;;16.53;;
21352;SDS011;10834;52.268;6.770;2022-10-31T04:35:43;27.67;;;16.63;;
21352;SDS011;10834;52.268;6.770;2022-10-31T04:38:30;24.73;;;16.40;;
21352;SDS011;10834;52.268;6.770;2022-10-31T04:41:16;23.40;;;16.53;;
21352;SDS011;10834;52.268;6.770;2022-10-31T04:44:02;25.80;;;16.07;;
21352;SDS011;10834;52.268;6.770;2022-10-31T04:46:48;30.10;;;17.77;;
21352;SDS011;10834;52.268;6.770;2022-10-31T04:49:34;26.10;;;18.40;;
21352;SDS011;10834;52.268;6.770;2022-10-31T04:52:20;26.40;;;17.67;;
21352;SDS011;10834;52.268;6.770;2022-10-31T04:55:06;24.33;;;17.23;;
21352;SDS011;10834;52.268;6.770;2022-10-31T04:57:52;26.43;;;17.63;;
21352;SDS011;10834;52.268;6.770;2022-10-31T05:00:38;25.13;;;16.50;;
21352;SDS011;10834;52.268;6.770;2022-10-31T05:03:24;24.43;;;16.77;;
21352;SDS011;10834;52.268;6.770;2022-10-31T05:06:10;27.67;;;18.27;;
21352;SDS011;10834;52.268;6.770;2022-10-31T05:08:56;27.07;;;17.00;;
21352;SDS011;10834;52.268;6.770;2022-10-31T05:11:42;25.37;;;16.80;;
21352;SDS011;10834;52.268;6.770;2022-10-31T05:14:28;28.17;;;17.13;;
21352;SDS011;10834;52.268;6.770;2022-10-31T05:17:14;25.33;;;17.27;;
21352;SDS011;10834;52.268;6.770;2022-10-31T05:20:00;27.97;;;16.33;;
21352;SDS011;10834;52.268;6.770;2022-10-31T05:22:46;23.67;;;16.97;;
21352;SDS011;10834;52.268;6.770;2022-10-31T05:25:33;25.77;;;17.20;;
21352;SDS011;10834;52.268;6.770;2022-10-31T05:28:19;23.07;;;15.70;;
21352;SDS011;10834;52.268;6.770;2022-10-31T05:31:05;27.97;;;16.90;;
21352;SDS011;10834;52.268;6.770;2022-10-31T05:33:51;26.87;;;16.33;;
21352;SDS011;10834;52.268;6.770;2022-10-31T05:36:37;26.77;;;16.43;;
21352;SDS011;10834;52.268;6.770;2022-10-31T05:39:23;24.60;;;16.00;;
21352;SDS011;10834;52.268;6.770;2022-10-31T05:42:09;22.50;;;15.10;;
21352;SDS011;10834;52.268;6.770;2022-10-31T05:44:55;25.77;;;17.20;;
21352;SDS011;10834;52.268;6.770;2022-10-31T05:47:41;23.60;;;15.33;;
21352;SDS011;10834;52.268;6.770;2022-10-31T05:50:29;29.37;;;16.70;;
21352;SDS011;10834;52.268;6.770;2022-10-31T05:53:16;30.23;;;16.67;;
21352;SDS011;10834;52.268;6.770;2022-10-31T05:56:02;26.77;;;16.73;;
21352;SDS011;10834;52.268;6.770;2022-10-31T05:58:48;31.13;;;17.00;;
21352;SDS011;10834;52.268;6.770;2022-10-31T06:01:34;23.17;;;16.47;;
21352;SDS011;10834;52.268;6.770;2022-10-31T06:04:19;31.53;;;17.23;;
21352;SDS011;10834;52.268;6.770;2022-10-31T06:07:05;25.97;;;16.97;;
21352;SDS011;10834;52.268;6.770;2022-10-31T06:09:51;26.77;;;17.17;;
21352;SDS011;10834;52.268;6.770;2022-10-31T06:12:37;28.13;;;17.60;;
21352;SDS011;10834;52.268;6.770;2022-10-31T06:15:25;29.67;;;19.70;;
21352;SDS011;10834;52.268;6.770;2022-10-31T06:18:11;28.53;;;17.87;;
21352;SDS011;10834;52.268;6.770;2022-10-31T06:20:57;39.30;;;22.67;;
21352;SDS011;10834;52.268;6.770;2022-10-31T06:23:43;31.47;;;19.73;;
21352;SDS011;10834;52.268;6.770;2022-10-31T06:26:29;31.63;;;19.97;;
21352;SDS011;10834;52.268;6.770;2022-10-31T06:29:15;33.97;;;19.13;;
21352;SDS011;10834;52.268;6.770;2022-10-31T06:32:01;35.67;;;19.60;;
21352;SDS011;10834;52.268;6.770;2022-10-31T06:34:47;31.20;;;19.93;;
21352;SDS011;10834;52.268;6.770;2022-10-31T06:37:33;36.47;;;21.93;;
21352;SDS011;10834;52.268;6.770;2022-10-31T06:40:19;33.27;;;20.93;;
21352;SDS011;10834;52.268;6.770;2022-10-31T06:43:05;34.37;;;20.30;;
21352;SDS011;10834;52.268;6.770;2022-10-31T06:45:51;26.47;;;19.07;;
21352;SDS011;10834;52.268;6.770;2022-10-31T06:48:37;32.97;;;20.50;;
21352;SDS011;10834;52.268;6.770;2022-10-31T06:51:23;34.03;;;20.43;;
21352;SDS011;10834;52.268;6.770;2022-10-31T06:54:09;29.77;;;19.57;;
21352;SDS011;10834;52.268;6.770;2022-10-31T06:56:54;30.03;;;19.50;;
21352;SDS011;10834;52.268;6.770;2022-10-31T06:59:40;28.07;;;19.60;;
21352;SDS011;10834;52.268;6.770;2022-10-31T07:02:26;32.07;;;19.73;;
21352;SDS011;10834;52.268;6.770;2022-10-31T07:05:12;32.40;;;20.50;;
21352;SDS011;10834;52.268;6.770;2022-10-31T07:07:59;34.00;;;21.43;;
21352;SDS011;10834;52.268;6.770;2022-10-31T07:10:50;36.73;;;20.63;;
21352;SDS011;10834;52.268;6.770;2022-10-31T07:13:41;31.80;;;18.47;;
21352;SDS011;10834;52.268;6.770;2022-10-31T07:16:27;32.53;;;19.23;;
21352;SDS011;10834;52.268;6.770;2022-10-31T07:19:13;37.03;;;21.07;;
21352;SDS011;10834;52.268;6.770;2022-10-31T07:21:59;32.70;;;20.27;;
21352;SDS011;10834;52.268;6.770;2022-10-31T07:24:44;34.27;;;20.77;;
21352;SDS011;10834;52.268;6.770;2022-10-31T07:27:37;31.60;;;20.97;;
21352;SDS011;10834;52.268;6.770;2022-10-31T07:30:23;37.07;;;21.83;;
21352;SDS011;10834;52.268;6.770;2022-10-31T07:33:09;35.33;;;21.37;;
21352;SDS011;10834;52.268;6.770;2022-10-31T07:35:55;41.63;;;24.53;;
21352;SDS011;10834;52.268;6.770;2022-10-31T07:38:41;37.43;;;23.53;;
21352;SDS011;10834;52.268;6.770;2022-10-31T07:41:27;40.10;;;22.97;;
21352;SDS011;10834;52.268;6.770;2022-10-31T07:44:13;40.93;;;22.77;;
21352;SDS011;10834;52.268;6.770;2022-10-31T07:46:59;44.43;;;24.60;;
21352;SDS011;10834;52.268;6.770;2022-10-31T07:49:45;36.67;;;24.23;;
21352;SDS011;10834;52.268;6.770;2022-10-31T07:52:30;37.70;;;22.30;;
21352;SDS011;10834;52.268;6.770;2022-10-31T07:55:16;36.60;;;23.90;;
21352;SDS011;10834;52.268;6.770;2022-10-31T07:58:10;40.57;;;24.07;;
21352;SDS011;10834;52.268;6.770;2022-10-31T08:00:57;39.73;;;23.27;;
21352;SDS011;10834;52.268;6.770;2022-10-31T08:03:43;37.77;;;22.90;;
21352;SDS011;10834;52.268;6.770;2022-10-31T08:06:29;34.03;;;21.80;;
21352;SDS011;10834;52.268;6.770;2022-10-31T08:09:16;40.13;;;22.13;;
21352;SDS011;10834;52.268;6.770;2022-10-31T08:12:02;36.43;;;22.87;;
21352;SDS011;10834;52.268;6.770;2022-10-31T08:14:48;35.73;;;21.43;;
21352;SDS011;10834;52.268;6.770;2022-10-31T08:17:35;34.13;;;21.97;;
21352;SDS011;10834;52.268;6.770;2022-10-31T08:20:21;32.27;;;20.87;;
21352;SDS011;10834;52.268;6.770;2022-10-31T08:23:08;37.27;;;21.93;;
21352;SDS011;10834;52.268;6.770;2022-10-31T08:25:55;33.93;;;20.70;;
21352;SDS011;10834;52.268;6.770;2022-10-31T08:28:42;33.67;;;22.30;;
21352;SDS011;10834;52.268;6.770;2022-10-31T08:31:28;34.43;;;20.73;;
21352;SDS011;10834;52.268;6.770;2022-10-31T08:34:15;31.43;;;20.37;;
21352;SDS011;10834;52.268;6.770;2022-10-31T08:37:00;32.63;;;19.43;;
21352;SDS011;10834;52.268;6.770;2022-10-31T08:39:46;31.10;;;18.90;;
21352;SDS011;10834;52.268;6.770;2022-10-31T08:42:32;30.50;;;18.03;;
21352;SDS011;10834;52.268;6.770;2022-10-31T08:45:18;28.73;;;18.60;;
21352;SDS011;10834;52.268;6.770;2022-10-31T08:48:05;26.97;;;18.27;;
21352;SDS011;10834;52.268;6.770;2022-10-31T08:50:57;25.30;;;17.83;;
21352;SDS011;10834;52.268;6.770;2022-10-31T08:53:44;26.63;;;16.27;;
21352;SDS011;10834;52.268;6.770;2022-10-31T08:56:30;26.87;;;17.07;;
21352;SDS011;10834;52.268;6.770;2022-10-31T08:59:16;26.67;;;16.73;;
21352;SDS011;10834;52.268;6.770;2022-10-31T09:02:02;29.63;;;18.17;;
21352;SDS011;10834;52.268;6.770;2022-10-31T09:04:48;24.00;;;16.20;;
21352;SDS011;10834;52.268;6.770;2022-10-31T09:07:33;22.67;;;17.50;;
21352;SDS011;10834;52.268;6.770;2022-10-31T09:10:19;29.03;;;17.47;;
21352;SDS011;10834;52.268;6.770;2022-10-31T09:13:07;27.93;;;17.47;;
21352;SDS011;10834;52.268;6.770;2022-10-31T09:15:57;26.97;;;15.83;;
21352;SDS011;10834;52.268;6.770;2022-10-31T09:18:44;25.23;;;16.47;;
21352;SDS011;10834;52.268;6.770;2022-10-31T09:21:30;26.23;;;16.53;;
21352;SDS011;10834;52.268;6.770;2022-10-31T09:24:15;23.90;;;14.70;;
21352;SDS011;10834;52.268;6.770;2022-10-31T09:27:01;29.37;;;15.20;;
21352;SDS011;10834;52.268;6.770;2022-10-31T09:29:47;31.00;;;15.50;;
21352;SDS011;10834;52.268;6.770;2022-10-31T09:32:33;25.50;;;14.60;;
21352;SDS011;10834;52.268;6.770;2022-10-31T09:35:19;19.83;;;12.77;;
21352;SDS011;10834;52.268;6.770;2022-10-31T09:38:26;20.30;;;12.23;;
21352;SDS011;10834;52.268;6.770;2022-10-31T09:44:07;17.43;;;12.17;;
21352;SDS011;10834;52.268;6.770;2022-10-31T09:47:06;16.50;;;11.33;;
21352;SDS011;10834;52.268;6.770;2022-10-31T09:50:22;15.20;;;11.03;;
21352;SDS011;10834;52.268;6.770;2022-10-31T09:56:24;14.87;;;10.53;;
21352;SDS011;10834;52.268;6.770;2022-10-31T09:59:24;15.33;;;10.77;;
21352;SDS011;10834;52.268;6.770;2022-10-31T10:08:36;13.67;;;8.90;;
21352;SDS011;10834;52.268;6.770;2022-10-31T10:27:17;10.87;;;6.23;;
21352;SDS011;10834;52.268;6.770;2022-10-31T10:33:04;9.80;;;5.90;;
21352;SDS011;10834;52.268;6.770;2022-10-31T10:36:00;11.83;;;5.90;;
21352;SDS011;10834;52.268;6.770;2022-10-31T10:38:50;8.33;;;5.13;;
21352;SDS011;10834;52.268;6.770;2022-10-31T10:41:39;7.47;;;5.03;;
21352;SDS011;10834;52.268;6.770;2022-10-31T10:44:30;6.87;;;4.37;;
21352;SDS011;10834;52.268;6.770;2022-10-31T10:47:41;8.13;;;4.37;;
21352;SDS011;10834;52.268;6.770;2022-10-31T10:50:34;6.27;;;3.90;;
21352;SDS011;10834;52.268;6.770;2022-10-31T10:59:50;8.50;;;3.60;;
21352;SDS011;10834;52.268;6.770;2022-10-31T11:02:36;7.73;;;4.43;;
21352;SDS011;10834;52.268;6.770;2022-10-31T11:05:24;8.53;;;4.17;;
21352;SDS011;10834;52.268;6.770;2022-10-31T11:08:29;7.10;;;4.88;;
21352;SDS011;10834;52.268;6.770;2022-10-31T11:14:04;13.77;;;6.73;;
21352;SDS011;10834;52.268;6.770;2022-10-31T11:17:08;9.53;;;6.60;;
21352;SDS011;10834;52.268;6.770;2022-10-31T11:23:10;11.50;;;6.53;;
21352;SDS011;10834;52.268;6.770;2022-10-31T11:28:57;13.30;;;8.27;;
21352;SDS011;10834;52.268;6.770;2022-10-31T11:31:44;16.93;;;8.47;;
21352;SDS011;10834;52.268;6.770;2022-10-31T11:34:33;16.30;;;7.37;;
21352;SDS011;10834;52.268;6.770;2022-10-31T11:37:29;16.50;;;8.57;;
21352;SDS011;10834;52.268;6.770;2022-10-31T11:40:21;11.30;;;7.37;;
21352;SDS011;10834;52.268;6.770;2022-10-31T11:43:12;18.43;;;9.33;;
21352;SDS011;10834;52.268;6.770;2022-10-31T11:46:11;12.70;;;7.63;;
21352;SDS011;10834;52.268;6.770;2022-10-31T11:49:04;12.73;;;7.70;;
21352;SDS011;10834;52.268;6.770;2022-10-31T11:51:52;11.37;;;6.77;;
21352;SDS011;10834;52.268;6.770;2022-10-31T11:54:44;13.90;;;7.57;;
21352;SDS011;10834;52.268;6.770;2022-10-31T11:57:44;11.93;;;7.07;;
21352;SDS011;10834;52.268;6.770;2022-10-31T12:00:37;16.30;;;9.07;;
21352;SDS011;10834;52.268;6.770;2022-10-31T12:06:40;10.83;;;7.10;;
21352;SDS011;10834;52.268;6.770;2022-10-31T12:09:28;12.87;;;6.87;;
21352;SDS011;10834;52.268;6.770;2022-10-31T12:15:32;13.43;;;6.83;;
21352;SDS011;10834;52.268;6.770;2022-10-31T12:24:38;9.43;;;6.60;;
21352;SDS011;10834;52.268;6.770;2022-10-31T12:30:43;13.02;;;6.10;;
21352;SDS011;10834;52.268;6.770;2022-10-31T12:33:58;13.50;;;6.47;;
21352;SDS011;10834;52.268;6.770;2022-10-31T12:37:08;10.05;;;6.55;;
21352;SDS011;10834;52.268;6.770;2022-10-31T12:52:07;12.35;;;7.97;;
21352;SDS011;10834;52.268;6.770;2022-10-31T12:58:03;15.57;;;8.30;;
21352;SDS011;10834;52.268;6.770;2022-10-31T13:01:02;14.45;;;9.70;;
21352;SDS011;10834;52.268;6.770;2022-10-31T13:06:44;18.90;;;11.83;;
21352;SDS011;10834;52.268;6.770;2022-10-31T13:10:16;26.17;;;14.00;;
21352;SDS011;10834;52.268;6.770;2022-10-31T13:13:00;23.47;;;13.73;;
21352;SDS011;10834;52.268;6.770;2022-10-31T13:16:36;21.02;;;14.60;;
21352;SDS011;10834;52.268;6.770;2022-10-31T13:24:55;25.85;;;15.57;;
21352;SDS011;10834;52.268;6.770;2022-10-31T13:30:40;25.47;;;15.17;;
21352;SDS011;10834;52.268;6.770;2022-10-31T13:36:36;28.47;;;16.53;;
21352;SDS011;10834;52.268;6.770;2022-10-31T13:39:39;30.10;;;15.97;;
21352;SDS011;10834;52.268;6.770;2022-10-31T13:43:19;26.17;;;16.37;;
21352;SDS011;10834;52.268;6.770;2022-10-31T13:46:20;29.40;;;16.47;;
21352;SDS011;10834;52.268;6.770;2022-10-31T13:52:30;32.05;;;15.80;;
21352;SDS011;10834;52.268;6.770;2022-10-31T13:55:36;26.57;;;14.47;;
21352;SDS011;10834;52.268;6.770;2022-10-31T13:58:23;26.53;;;15.97;;
21352;SDS011;10834;52.268;6.770;2022-10-31T14:01:17;30.50;;;16.80;;
21352;SDS011;10834;52.268;6.770;2022-10-31T14:07:30;36.53;;;16.73;;
21352;SDS011;10834;52.268;6.770;2022-10-31T14:10:27;33.53;;;17.90;;
21352;SDS011;10834;52.268;6.770;2022-10-31T14:13:35;39.80;;;20.83;;
21352;SDS011;10834;52.268;6.770;2022-10-31T14:16:30;31.67;;;18.13;;
21352;SDS011;10834;52.268;6.770;2022-10-31T14:19:17;27.80;;;17.50;;
21352;SDS011;10834;52.268;6.770;2022-10-31T14:22:18;32.03;;;17.50;;
21352;SDS011;10834;52.268;6.770;2022-10-31T14:28:21;29.73;;;18.83;;
21352;SDS011;10834;52.268;6.770;2022-10-31T14:31:27;29.37;;;18.30;;
21352;SDS011;10834;52.268;6.770;2022-10-31T14:34:27;28.87;;;19.80;;
21352;SDS011;10834;52.268;6.770;2022-10-31T14:44:22;35.13;;;20.40;;
21352;SDS011;10834;52.268;6.770;2022-10-31T14:53:36;30.57;;;19.70;;
21352;SDS011;10834;52.268;6.770;2022-10-31T14:56:34;35.63;;;20.07;;
21352;SDS011;10834;52.268;6.770;2022-10-31T14:59:24;32.57;;;20.23;;
21352;SDS011;10834;52.268;6.770;2022-10-31T15:02:24;28.53;;;18.40;;
21352;SDS011;10834;52.268;6.770;2022-10-31T15:05:33;30.73;;;20.13;;
21352;SDS011;10834;52.268;6.770;2022-10-31T15:11:24;31.13;;;21.27;;
21352;SDS011;10834;52.268;6.770;2022-10-31T15:14:22;31.37;;;19.20;;
21352;SDS011;10834;52.268;6.770;2022-10-31T15:17:11;34.83;;;19.73;;
21352;SDS011;10834;52.268;6.770;2022-10-31T15:19:57;33.00;;;19.37;;
21352;SDS011;10834;52.268;6.770;2022-10-31T15:22:43;31.03;;;19.63;;
21352;SDS011;10834;52.268;6.770;2022-10-31T15:25:31;33.77;;;20.63;;
21352;SDS011;10834;52.268;6.770;2022-10-31T15:28:21;37.43;;;20.97;;
21352;SDS011;10834;52.268;6.770;2022-10-31T15:31:13;31.13;;;19.20;;
21352;SDS011;10834;52.268;6.770;2022-10-31T15:34:07;33.20;;;20.60;;
21352;SDS011;10834;52.268;6.770;2022-10-31T15:37:01;34.33;;;20.13;;
21352;SDS011;10834;52.268;6.770;2022-10-31T15:39:48;33.87;;;21.63;;
21352;SDS011;10834;52.268;6.770;2022-10-31T15:42:35;28.43;;;20.83;;
21352;SDS011;10834;52.268;6.770;2022-10-31T15:45:26;32.17;;;20.30;;
21352;SDS011;10834;52.268;6.770;2022-10-31T15:48:17;33.93;;;19.23;;
21352;SDS011;10834;52.268;6.770;2022-10-31T15:51:07;34.30;;;20.30;;
21352;SDS011;10834;52.268;6.770;2022-10-31T15:53:52;29.03;;;18.30;;
21352;SDS011;10834;52.268;6.770;2022-10-31T15:56:40;31.43;;;19.33;;
21352;SDS011;10834;52.268;6.770;2022-10-31T15:59:28;33.97;;;21.40;;
21352;SDS011;10834;52.268;6.770;2022-10-31T16:02:18;38.70;;;21.37;;
21352;SDS011;10834;52.268;6.770;2022-10-31T16:05:16;34.27;;;21.30;;
21352;SDS011;10834;52.268;6.770;2022-10-31T16:08:04;38.00;;;21.63;;
21352;SDS011;10834;52.268;6.770;2022-10-31T16:10:50;37.63;;;20.60;;
21352;SDS011;10834;52.268;6.770;2022-10-31T16:13:38;35.53;;;21.53;;
21352;SDS011;10834;52.268;6.770;2022-10-31T16:16:48;38.97;;;19.67;;
21352;SDS011;10834;52.268;6.770;2022-10-31T16:19:38;36.77;;;21.33;;
21352;SDS011;10834;52.268;6.770;2022-10-31T16:22:37;34.07;;;20.13;;
21352;SDS011;10834;52.268;6.770;2022-10-31T16:28:22;39.20;;;20.53;;
21352;SDS011;10834;52.268;6.770;2022-10-31T16:31:13;39.50;;;22.47;;
21352;SDS011;10834;52.268;6.770;2022-10-31T16:34:33;39.40;;;22.33;;
21352;SDS011;10834;52.268;6.770;2022-10-31T16:37:11;39.30;;;22.27;;
21352;SDS011;10834;52.268;6.770;2022-10-31T16:39:57;35.33;;;20.77;;
21352;SDS011;10834;52.268;6.770;2022-10-31T16:42:45;38.37;;;22.13;;
21352;SDS011;10834;52.268;6.770;2022-10-31T16:45:34;37.93;;;22.93;;
21352;SDS011;10834;52.268;6.770;2022-10-31T16:48:20;35.47;;;21.80;;
21352;SDS011;10834;52.268;6.770;2022-10-31T16:51:08;36.60;;;22.13;;
21352;SDS011;10834;52.268;6.770;2022-10-31T16:53:54;43.80;;;23.87;;
21352;SDS011;10834;52.268;6.770;2022-10-31T16:56:40;45.57;;;23.37;;
21352;SDS011;10834;52.268;6.770;2022-10-31T16:59:28;40.63;;;21.53;;
21352;SDS011;10834;52.268;6.770;2022-10-31T17:02:15;37.47;;;22.33;;
21352;SDS011;10834;52.268;6.770;2022-10-31T17:05:01;46.90;;;23.93;;
21352;SDS011;10834;52.268;6.770;2022-10-31T17:07:48;40.00;;;21.53;;
21352;SDS011;10834;52.268;6.770;2022-10-31T17:10:36;40.43;;;24.97;;
21352;SDS011;10834;52.268;6.770;2022-10-31T17:13:23;45.53;;;24.23;;
21352;SDS011;10834;52.268;6.770;2022-10-31T17:16:12;37.20;;;23.97;;
21352;SDS011;10834;52.268;6.770;2022-10-31T17:18:59;35.17;;;22.17;;
21352;SDS011;10834;52.268;6.770;2022-10-31T17:21:45;40.13;;;23.37;;
21352;SDS011;10834;52.268;6.770;2022-10-31T17:24:31;44.23;;;22.03;;
21352;SDS011;10834;52.268;6.770;2022-10-31T17:27:17;38.90;;;22.47;;
21352;SDS011;10834;52.268;6.770;2022-10-31T17:30:03;39.67;;;21.70;;
21352;SDS011;10834;52.268;6.770;2022-10-31T17:32:49;36.87;;;21.87;;
21352;SDS011;10834;52.268;6.770;2022-10-31T17:35:36;41.60;;;23.90;;
21352;SDS011;10834;52.268;6.770;2022-10-31T17:38:22;39.00;;;22.57;;
21352;SDS011;10834;52.268;6.770;2022-10-31T17:41:08;35.63;;;21.97;;
21352;SDS011;10834;52.268;6.770;2022-10-31T17:43:55;40.17;;;23.93;;
21352;SDS011;10834;52.268;6.770;2022-10-31T17:46:41;45.53;;;23.03;;
21352;SDS011;10834;52.268;6.770;2022-10-31T17:49:27;44.03;;;23.20;;
21352;SDS011;10834;52.268;6.770;2022-10-31T17:52:13;38.70;;;23.50;;
21352;SDS011;10834;52.268;6.770;2022-10-31T17:54:58;41.27;;;21.90;;
21352;SDS011;10834;52.268;6.770;2022-10-31T17:57:44;37.70;;;21.13;;
21352;SDS011;10834;52.268;6.770;2022-10-31T18:00:30;39.63;;;21.93;;
21352;SDS011;10834;52.268;6.770;2022-10-31T18:03:17;34.30;;;20.40;;
21352;SDS011;10834;52.268;6.770;2022-10-31T18:06:03;40.93;;;21.77;;
21352;SDS011;10834;52.268;6.770;2022-10-31T18:08:49;37.80;;;20.70;;
21352;SDS011;10834;52.268;6.770;2022-10-31T18:11:35;35.33;;;21.37;;
21352;SDS011;10834;52.268;6.770;2022-10-31T18:14:21;34.37;;;20.60;;
21352;SDS011;10834;52.268;6.770;2022-10-31T18:17:07;36.17;;;21.70;;
21352;SDS011;10834;52.268;6.770;2022-10-31T18:19:53;36.40;;;20.77;;
21352;SDS011;10834;52.268;6.770;2022-10-31T18:22:39;36.83;;;20.83;;
21352;SDS011;10834;52.268;6.770;2022-10-31T18:25:25;34.53;;;20.73;;
21352;SDS011;10834;52.268;6.770;2022-10-31T18:28:11;33.27;;;19.37;;
21352;SDS011;10834;52.268;6.770;2022-10-31T18:30:58;39.33;;;20.43;;
21352;SDS011;10834;52.268;6.770;2022-10-31T18:33:47;32.97;;;19.30;;
21352;SDS011;10834;52.268;6.770;2022-10-31T18:36:36;36.40;;;21.33;;
21352;SDS011;10834;52.268;6.770;2022-10-31T18:39:22;34.73;;;21.07;;
21352;SDS011;10834;52.268;6.770;2022-10-31T18:42:08;37.10;;;19.43;;
21352;SDS011;10834;52.268;6.770;2022-10-31T18:44:54;30.27;;;19.13;;
21352;SDS011;10834;52.268;6.770;2022-10-31T18:47:40;34.67;;;20.03;;
21352;SDS011;10834;52.268;6.770;2022-10-31T18:50:26;36.60;;;20.93;;
21352;SDS011;10834;52.268;6.770;2022-10-31T18:53:12;37.43;;;21.30;;
21352;SDS011;10834;52.268;6.770;2022-10-31T18:55:58;38.33;;;20.60;;
21352;SDS011;10834;52.268;6.770;2022-10-31T18:58:45;32.83;;;20.10;;
21352;SDS011;10834;52.268;6.770;2022-10-31T19:01:31;30.03;;;19.67;;
21352;SDS011;10834;52.268;6.770;2022-10-31T19:04:17;36.90;;;20.20;;